createdAt,value
2024-02-11T00:00:05.618Z,59.40
2024-02-11T00:05:29.368Z,68.20
2024-02-11T00:10:33.385Z,71.60
2024-02-11T00:15:39.636Z,65.30
2024-02-11T00:20:43.567Z,70.80
2024-02-11T00:25:47.457Z,64.20
2024-02-11T00:30:51.307Z,68.80
2024-02-11T00:35:57.747Z,59.90
2024-02-11T00:41:01.659Z,62.10
2024-02-11T00:46:05.744Z,68.70
2024-02-11T00:51:11.239Z,61.40
2024-02-11T00:56:15.906Z,73.20
2024-02-11T01:01:19.939Z,71.70
2024-02-11T01:06:23.707Z,55.90
2024-02-11T01:11:27.685Z,70.70
2024-02-11T01:16:31.788Z,93.90
2024-02-11T01:21:36.278Z,90.60
2024-02-11T01:26:40.218Z,77.50
2024-02-11T01:31:44.005Z,79.00
2024-02-11T01:36:48.009Z,84.60
2024-02-11T01:41:51.894Z,85.00
2024-02-11T01:46:56.965Z,83.80
2024-02-11T01:52:01.373Z,82.90
2024-02-11T01:57:06.932Z,76.30
2024-02-11T02:02:13.471Z,93.70
2024-02-11T02:07:17.691Z,71.10
2024-02-11T02:12:23.285Z,92.30
2024-02-11T02:17:27.241Z,89.80
2024-02-11T02:22:33.244Z,93.90
2024-02-11T02:27:37.854Z,83.30
2024-02-11T02:32:41.601Z,87.70
2024-02-11T02:37:48.078Z,91.70
2024-02-11T02:42:51.962Z,78.40
2024-02-11T02:47:56.163Z,89.40
2024-02-11T02:53:00.129Z,86.90
2024-02-11T02:58:08.119Z,78.20
2024-02-11T03:03:12.104Z,86.90
2024-02-11T03:08:16.723Z,90.20
2024-02-11T03:13:20.662Z,90.10
2024-02-11T03:18:24.705Z,76.40
2024-02-11T03:23:28.521Z,89.50
2024-02-11T03:28:34.964Z,86.70
2024-02-11T03:33:39.158Z,76.10
2024-02-11T03:38:43.110Z,84.00
2024-02-11T03:43:46.983Z,73.90
2024-02-11T03:48:50.786Z,84.30
2024-02-11T03:53:54.678Z,66.60
2024-02-11T03:58:58.577Z,77.30
2024-02-11T04:04:03.177Z,77.80
2024-02-11T04:09:09.345Z,71.20
2024-02-11T04:14:16.320Z,74.60
2024-02-11T04:19:21.593Z,88.90
2024-02-11T04:24:29.088Z,71.60
2024-02-11T04:29:33.749Z,78.10
2024-02-11T04:34:42.238Z,77.30
2024-02-11T04:39:46.994Z,88.40
2024-02-11T04:44:52.032Z,83.60
2024-02-11T04:49:55.929Z,91.10
2024-02-11T04:54:59.954Z,84.40
2024-02-11T05:00:10.468Z,71.90
2024-02-11T05:05:14.321Z,75.40
2024-02-11T05:10:18.200Z,77.10
2024-02-11T05:15:22.011Z,76.90
2024-02-11T05:20:27.023Z,85.50
2024-02-11T05:25:31.281Z,84.60
2024-02-11T05:30:35.235Z,68.00
2024-02-11T05:35:38.965Z,72.10
2024-02-11T05:40:45.788Z,71.70
2024-02-11T05:45:50.572Z,67.40
2024-02-11T05:50:54.350Z,66.20
2024-02-11T05:55:58.682Z,71.50
2024-02-11T06:01:05.095Z,67.00
2024-02-11T06:06:09.140Z,68.70
2024-02-11T06:11:13.107Z,58.90
2024-02-11T06:16:17.580Z,70.60
2024-02-11T06:21:21.345Z,67.50
2024-02-11T06:26:25.447Z,66.20
2024-02-11T06:31:29.218Z,56.70
2024-02-11T06:36:37.579Z,72.00
2024-02-11T06:41:42.186Z,62.60
2024-02-11T06:46:46.228Z,75.00
2024-02-11T06:51:51.625Z,71.20
2024-02-11T06:56:55.970Z,70.90
2024-02-11T07:02:00.250Z,56.00
2024-02-11T07:07:04.340Z,57.90
2024-02-11T07:12:08.576Z,56.70
2024-02-11T07:17:15.425Z,59.00
2024-02-11T07:22:19.362Z,61.80
2024-02-11T07:27:24.782Z,56.70
2024-02-11T07:32:28.943Z,51.90
2024-02-11T07:37:32.862Z,56.20
2024-02-11T07:42:37.964Z,51.40
2024-02-11T07:47:46.635Z,49.50
2024-02-11T07:52:50.469Z,45.10
2024-02-11T07:57:55.190Z,44.80
2024-02-11T08:02:59.210Z,45.00
2024-02-11T08:08:03.985Z,45.80
2024-02-11T08:13:11.233Z,53.80
2024-02-11T08:18:15.740Z,47.10
2024-02-11T08:23:21.383Z,43.70
2024-02-11T08:28:25.510Z,45.40
2024-02-11T08:33:30.054Z,43.30
2024-02-11T08:38:34.177Z,42.90
2024-02-11T08:48:45.735Z,38.70
2024-02-11T08:53:51.632Z,42.80
2024-02-11T08:58:55.528Z,39.40
2024-02-11T09:04:00.862Z,41.70
2024-02-11T09:09:06.731Z,47.80
2024-02-11T09:14:11.507Z,42.90
2024-02-11T09:19:15.803Z,43.10
2024-02-11T09:24:20.052Z,47.20
2024-02-11T09:29:24.656Z,41.80
2024-02-11T09:34:28.612Z,42.60
2024-02-11T09:39:43.352Z,47.30
2024-02-11T09:44:50.540Z,45.60
2024-02-11T09:49:57.111Z,46.30
2024-02-11T09:55:03.522Z,45.80
2024-02-11T10:00:10.176Z,45.50
2024-02-11T10:05:18.524Z,43.10
2024-02-11T10:10:22.738Z,43.80
2024-02-11T10:15:27.454Z,45.10
2024-02-11T10:20:31.468Z,37.10
2024-02-11T10:25:35.739Z,45.00
2024-02-11T10:30:39.924Z,46.90
2024-02-11T10:35:43.946Z,43.40
2024-02-11T10:40:48.179Z,45.10
2024-02-11T10:45:52.605Z,44.50
2024-02-11T10:51:09.236Z,43.30
2024-02-11T10:56:15.299Z,41.50
2024-02-11T11:01:21.376Z,41.20
2024-02-11T11:06:27.981Z,41.20
2024-02-11T11:11:34.573Z,44.20
2024-02-11T11:16:41.853Z,41.60
2024-02-11T11:21:52.842Z,43.90
2024-02-11T11:26:58.283Z,41.70
2024-02-11T11:32:09.811Z,37.20
2024-02-11T11:37:16.240Z,37.80
2024-02-11T11:42:20.711Z,38.50
2024-02-11T11:47:25.402Z,36.70
2024-02-11T11:52:29.835Z,37.60
2024-02-11T11:57:34.654Z,40.30
2024-02-11T12:02:39.089Z,42.00
2024-02-11T12:07:43.773Z,41.20
2024-02-11T12:12:48.666Z,40.30
2024-02-11T12:17:59.081Z,41.40
2024-02-11T12:23:03.448Z,40.20
2024-02-11T12:28:07.562Z,39.50
2024-02-11T12:33:12.333Z,37.00
2024-02-11T12:38:19.377Z,37.80
2024-02-11T12:43:24.838Z,34.70
2024-02-11T12:48:28.844Z,30.80
2024-02-11T12:53:34.415Z,34.20
2024-02-11T12:58:38.719Z,29.50
2024-02-11T13:03:43.613Z,37.70
2024-02-11T13:08:47.864Z,32.90
2024-02-11T13:13:52.065Z,30.70
2024-02-11T13:18:58.956Z,41.90
2024-02-11T13:24:02.883Z,36.60
2024-02-11T13:29:09.482Z,39.20
2024-02-11T13:34:13.541Z,40.60
2024-02-11T13:39:18.764Z,35.70
2024-02-11T13:44:23.161Z,31.40
2024-02-11T13:49:27.409Z,29.00
2024-02-11T13:54:31.405Z,29.60
2024-02-11T13:59:37.281Z,29.70
2024-02-11T14:04:41.829Z,34.90
2024-02-11T14:09:46.189Z,33.40
2024-02-11T14:14:51.479Z,31.80
2024-02-11T14:19:55.487Z,33.70
2024-02-11T14:24:59.345Z,33.50
2024-02-11T14:30:04.468Z,38.40
2024-02-11T14:35:10.166Z,43.80
2024-02-11T14:40:15.995Z,38.60
2024-02-11T14:45:23.417Z,39.10
2024-02-11T14:50:28.886Z,39.10
2024-02-11T14:55:33.829Z,46.50
2024-02-11T15:00:39.856Z,43.50
2024-02-11T15:05:45.320Z,27.70
2024-02-11T15:10:49.376Z,45.00
2024-02-11T15:15:53.422Z,43.70
2024-02-11T15:20:57.561Z,50.00
2024-02-11T15:26:01.385Z,51.00
2024-02-11T15:31:05.549Z,49.10
2024-02-11T15:36:10.616Z,39.30
2024-02-11T15:41:15.162Z,40.20
2024-02-11T15:46:19.054Z,41.60
2024-02-11T15:51:24.030Z,44.80
2024-02-11T15:56:28.017Z,41.50
2024-02-11T16:01:32.042Z,41.10
2024-02-11T16:06:36.971Z,44.60
2024-02-11T16:11:41.498Z,40.60
2024-02-11T16:16:46.104Z,36.00
2024-02-11T16:21:51.166Z,37.20
2024-02-11T16:26:55.174Z,44.10
2024-02-11T16:31:59.203Z,37.00
2024-02-11T16:37:03.184Z,34.00
2024-02-11T16:42:08.488Z,35.20
2024-02-11T16:47:12.731Z,39.60
2024-02-11T16:52:17.156Z,37.60
2024-02-11T16:57:20.890Z,38.20
2024-02-11T17:02:25.061Z,33.40
2024-02-11T17:07:29.280Z,46.70
2024-02-11T17:12:34.969Z,39.50
2024-02-11T17:17:39.570Z,34.10
2024-02-11T17:22:44.343Z,35.60
2024-02-11T17:27:49.834Z,34.50
2024-02-11T17:32:59.385Z,31.40
2024-02-11T17:38:06.705Z,32.80
2024-02-11T17:43:12.244Z,34.30
2024-02-11T17:48:16.329Z,39.40
2024-02-11T17:53:28.031Z,41.40
2024-02-11T17:58:38.564Z,40.60
2024-02-11T18:03:46.475Z,33.80
2024-02-11T18:08:58.782Z,35.10
2024-02-11T18:14:05.691Z,38.50
2024-02-11T18:19:12.410Z,42.60
2024-02-11T18:24:18.742Z,39.80
2024-02-11T18:29:24.562Z,38.20
2024-02-11T18:34:48.964Z,39.20
2024-02-11T18:40:22.660Z,39.70
2024-02-11T18:45:46.380Z,37.80
2024-02-11T18:50:53.252Z,42.60
2024-02-11T18:56:00.630Z,37.00
2024-02-11T19:01:06.365Z,33.30
2024-02-11T19:06:14.922Z,46.30
2024-02-11T19:11:20.196Z,41.20
2024-02-11T19:16:25.323Z,42.80
2024-02-11T19:21:30.035Z,49.70
2024-02-11T19:26:35.088Z,45.90
2024-02-11T19:31:39.391Z,47.80
2024-02-11T19:36:44.367Z,45.20
2024-02-11T19:41:48.628Z,42.30
2024-02-11T19:46:53.380Z,42.70
2024-02-11T19:51:58.559Z,47.00
2024-02-11T19:57:05.672Z,44.00
2024-02-11T20:02:12.982Z,48.60
2024-02-11T20:07:18.316Z,45.50
2024-02-11T20:12:23.038Z,52.90
2024-02-11T20:17:27.454Z,49.40
2024-02-11T20:22:33.584Z,44.60
2024-02-11T20:27:38.293Z,51.20
2024-02-11T20:32:46.011Z,55.30
2024-02-11T20:38:16.417Z,52.10
2024-02-11T20:43:54.354Z,52.30
2024-02-11T20:49:00.355Z,47.30
2024-02-11T20:54:10.400Z,49.50
2024-02-11T20:59:17.505Z,49.10
2024-02-11T21:04:23.568Z,56.40
2024-02-11T21:09:28.503Z,57.80
2024-02-11T21:14:36.138Z,53.00
2024-02-11T21:19:40.435Z,53.90
2024-02-11T21:24:45.087Z,54.90
2024-02-11T21:29:52.369Z,51.60
2024-02-11T21:35:06.829Z,52.50
2024-02-11T21:40:51.962Z,49.60
2024-02-11T21:46:10.246Z,59.30
2024-02-11T21:51:15.982Z,55.30
2024-02-11T21:56:20.847Z,55.50
2024-02-11T22:01:25.447Z,53.20
2024-02-11T22:06:30.079Z,56.00
2024-02-11T22:11:35.896Z,60.20
2024-02-11T22:16:40.574Z,66.70
2024-02-11T22:21:45.175Z,70.10
2024-02-11T22:26:57.136Z,65.20
2024-02-11T22:32:44.390Z,75.60
2024-02-11T22:38:09.505Z,65.40
2024-02-11T22:43:46.753Z,72.70
2024-02-11T22:49:09.964Z,67.30
2024-02-11T22:54:40.817Z,73.70
2024-02-11T22:59:48.147Z,73.50
2024-02-11T23:05:00.602Z,71.30
2024-02-11T23:10:49.422Z,62.90
2024-02-11T23:15:55.526Z,68.30
2024-02-11T23:21:13.426Z,62.80
2024-02-11T23:26:43.098Z,65.90
2024-02-11T23:32:01.505Z,61.70
2024-02-11T23:37:07.693Z,58.00
2024-02-11T23:42:13.763Z,67.30
2024-02-11T23:47:18.795Z,70.90
2024-02-11T23:52:57.457Z,65.80
2024-02-11T23:59:18.599Z,60.60
